Time;durP1;ratioP1;P1;durP2;ratioP2;P2;SDS_P1;SDS_P2;PMS_P1;PMS_P2;Temp;Humidity;BMP_temperature;BMP_pressure;BME280_temperature;BME280_humidity;BME280_pressure;Samples;Min_cycle;Max_cycle;Signal;HPM_P1;HPM_P2
2022/09/24 00:01:25;;;;;;;9.25;6.80;;;;;;;-140.72;100.00;52685.09;4980537;28;20034;-71
2022/09/24 00:03:54;;;;;;;8.40;6.05;;;;;;;-140.72;100.00;52731.75;4978556;28;20118;-69
2022/09/24 00:06:20;;;;;;;7.88;6.35;;;;;;;-140.72;100.00;52687.13;4979458;28;20367;-71
2022/09/24 00:08:47;;;;;;;9.75;6.57;;;;;;;-140.72;100.00;52699.31;4982584;28;20038;-70
2022/09/24 00:11:13;;;;;;;10.73;7.53;;;;;;;-140.72;100.00;52679.00;4981390;28;20038;-70
2022/09/24 00:13:39;;;;;;;7.95;5.97;;;;;;;-140.72;100.00;52703.34;4975463;28;20034;-69
2022/09/24 00:16:11;;;;;;;12.18;7.78;;;;;;;-140.72;100.00;52719.59;4976358;28;20026;-68
2022/09/24 00:18:37;;;;;;;11.88;6.80;;;;;;;-140.72;100.00;52695.25;4982891;28;20030;-68
2022/09/24 00:21:16;;;;;;;10.23;6.82;;;;;;;-140.72;100.00;52713.50;4978064;28;20221;-69
2022/09/24 00:23:42;;;;;;;11.52;7.45;;;;;;;-140.72;100.00;52733.78;4980700;28;20652;-69
2022/09/24 00:28:55;;;;;;;12.88;7.68;;;;;;;-140.72;100.00;52719.59;4978360;28;20037;-70
2022/09/24 00:31:20;;;;;;;11.10;7.35;;;;;;;-140.72;100.00;52729.75;4986029;28;20399;-69
2022/09/24 00:33:48;;;;;;;9.32;7.25;;;;;;;-140.72;100.00;52723.66;4981437;28;20395;-69
2022/09/24 00:36:14;;;;;;;11.05;7.50;;;;;;;-140.72;100.00;52717.56;4988105;28;20046;-69
2022/09/24 00:38:40;;;;;;;11.55;7.53;;;;;;;-140.72;100.00;52715.53;4982422;28;20122;-68
2022/09/24 00:41:05;;;;;;;10.77;7.40;;;;;;;-140.72;100.00;52709.44;4985121;28;20357;-69
2022/09/24 00:43:36;;;;;;;10.95;8.20;;;;;;;-140.72;100.00;52721.63;4978167;28;20104;-68
2022/09/24 00:46:26;;;;;;;12.23;7.80;;;;;;;-140.72;100.00;52654.66;4985352;28;20510;-69
2022/09/24 00:49:05;;;;;;;8.65;6.38;;;;;;;-140.72;100.00;52721.63;4975033;28;20495;-70
2022/09/24 00:51:32;;;;;;;9.43;7.03;;;;;;;-140.72;100.00;52752.06;4981658;28;20029;-69
2022/09/24 00:54:05;;;;;;;13.45;8.85;;;;;;;-140.72;100.00;52733.78;4987146;28;20027;-70
2022/09/24 00:56:35;;;;;;;9.90;7.15;;;;;;;-140.72;100.00;52681.03;4980529;28;20491;-69
2022/09/24 00:59:01;;;;;;;;;;;;;;;-140.72;100.00;52731.75;4985200;28;20410;-69
2022/09/24 01:01:28;;;;;;;9.32;6.88;;;;;;;-140.72;100.00;52723.66;4983004;28;20080;-69
2022/09/24 01:03:56;;;;;;;9.07;7.32;;;;;;;-140.72;100.00;52725.69;4985828;28;20030;-70
2022/09/24 01:06:22;;;;;;;9.13;6.40;;;;;;;-140.72;100.00;52711.47;4981150;28;20458;-71
2022/09/24 01:08:47;;;;;;;8.48;6.47;;;;;;;-140.72;100.00;52741.91;4983712;28;20029;-70
2022/09/24 01:11:42;;;;;;;10.27;6.57;;;;;;;-140.72;100.00;52711.47;4986856;28;20027;-69
2022/09/24 01:14:52;;;;;;;9.23;6.82;;;;;;;-140.72;100.00;52709.44;4988296;28;20184;-70
2022/09/24 01:17:26;;;;;;;11.60;7.28;;;;;;;-140.72;100.00;52760.19;4981145;28;20022;-69
2022/09/24 01:19:54;;;;;;;11.82;7.80;;;;;;;-140.72;100.00;52691.19;4981674;28;20037;-69
2022/09/24 01:22:41;;;;;;;10.85;8.05;;;;;;;-140.72;100.00;52719.59;4988640;28;20401;-70
2022/09/24 01:25:29;;;;;;;14.07;8.70;;;;;;;-140.72;100.00;52717.56;4981409;28;20109;-69
2022/09/24 01:28:13;;;;;;;14.35;9.13;;;;;;;-140.72;100.00;52719.59;4985532;28;20057;-69
2022/09/24 01:30:40;;;;;;;14.52;9.80;;;;;;;-140.72;100.00;52687.13;4986583;28;20393;-71
2022/09/24 01:33:13;;;;;;;13.88;8.65;;;;;;;-140.72;100.00;52729.75;4980328;28;20027;-69
2022/09/24 01:35:56;;;;;;;10.07;8.25;;;;;;;-140.72;100.00;52715.53;4981447;28;20125;-69
2022/09/24 01:38:43;;;;;;;12.90;10.13;;;;;;;-140.72;100.00;52709.44;4981751;28;20125;-69
2022/09/24 01:41:11;;;;;;;11.02;8.18;;;;;;;-140.72;100.00;52721.63;4975948;28;20030;-70
2022/09/24 01:43:38;;;;;;;13.05;9.05;;;;;;;-140.72;100.00;52707.41;4977871;28;20026;-71
2022/09/24 01:46:05;;;;;;;11.15;8.60;;;;;;;-140.72;100.00;52691.19;4976067;28;20030;-71
2022/09/24 01:48:34;;;;;;;11.52;9.27;;;;;;;-140.72;100.00;52699.31;4981057;28;20027;-70
2022/09/24 01:51:20;;;;;;;12.68;8.80;;;;;;;-140.72;100.00;52729.75;4981110;28;20403;-70
2022/09/24 01:54:05;;;;;;;10.45;9.15;;;;;;;-140.72;100.00;52674.94;4982054;28;20026;-71
2022/09/24 01:56:37;;;;;;;14.38;9.15;;;;;;;-140.72;100.00;52733.78;4978004;28;20381;-71
2022/09/24 01:59:15;;;;;;;11.52;8.43;;;;;;;-140.72;100.00;52715.53;4983685;28;20026;-69
2022/09/24 02:01:59;;;;;;;12.75;8.25;;;;;;;-140.72;100.00;52731.75;4982934;28;20402;-71
2022/09/24 02:04:27;;;;;;;12.00;8.48;;;;;;;-140.72;100.00;52750.03;4979030;28;20681;-70
2022/09/24 02:07:02;;;;;;;10.77;8.52;;;;;;;-140.72;100.00;52739.88;4987138;28;20038;-70
2022/09/24 02:09:38;;;;;;;10.48;7.95;;;;;;;-140.72;100.00;52739.88;4977167;28;20027;-69
2022/09/24 02:12:14;;;;;;;11.63;8.45;;;;;;;-140.72;100.00;52723.66;4983341;28;20065;-70
2022/09/24 02:14:50;;;;;;;10.50;8.07;;;;;;;-140.72;100.00;52707.41;4984911;28;20042;-70
2022/09/24 02:17:17;;;;;;;12.60;8.27;;;;;;;-140.72;100.00;52705.38;4989418;28;20030;-69
2022/09/24 02:19:45;;;;;;;11.43;8.27;;;;;;;-140.72;100.00;52709.44;4986913;28;20034;-70
2022/09/24 02:22:13;;;;;;;9.98;7.70;;;;;;;-140.72;100.00;52707.41;4981721;28;20278;-71
2022/09/24 02:24:49;;;;;;;9.95;7.40;;;;;;;-140.72;100.00;52713.50;4984704;28;20033;-70
2022/09/24 02:27:15;;;;;;;12.23;8.65;;;;;;;-140.72;100.00;52717.56;4976939;28;20027;-69
2022/09/24 02:29:45;;;;;;;12.43;9.23;;;;;;;-140.72;100.00;52748.00;4981041;28;20667;-70
2022/09/24 02:32:14;;;;;;;10.13;7.28;;;;;;;-140.72;100.00;52701.31;4989632;28;20034;-69
2022/09/24 02:35:02;;;;;;;10.07;7.15;;;;;;;-140.72;100.00;52699.31;4978950;28;20050;-69
2022/09/24 02:37:28;;;;;;;9.77;7.85;;;;;;;-140.72;100.00;52723.66;4977295;28;20022;-71
2022/09/24 02:39:54;;;;;;;11.50;8.63;;;;;;;-140.72;100.00;52699.31;4987017;28;20018;-70
2022/09/24 02:42:21;;;;;;;12.63;8.57;;;;;;;-140.72;100.00;52735.81;4988468;28;20030;-69
2022/09/24 02:44:46;;;;;;;14.32;9.27;;;;;;;-140.72;100.00;52721.63;4984176;28;20021;-70
2022/09/24 02:47:12;;;;;;;9.80;7.30;;;;;;;-140.72;100.00;52729.75;4982956;28;20026;-70
2022/09/24 02:49:38;;;;;;;11.25;8.60;;;;;;;-140.72;100.00;52697.28;4982732;28;20442;-69
2022/09/24 02:52:03;;;;;;;11.52;8.77;;;;;;;-140.72;100.00;52737.84;4979413;28;20443;-70
2022/09/24 02:54:33;;;;;;;10.07;7.47;;;;;;;-140.72;100.00;52715.53;4982256;28;20056;-70
2022/09/24 02:56:58;;;;;;;10.68;7.95;;;;;;;-140.72;100.00;52731.75;4984356;28;20045;-71
2022/09/24 02:59:23;;;;;;;12.40;9.25;;;;;;;-140.72;100.00;52723.66;4979510;28;20031;-70
2022/09/24 03:01:49;;;;;;;12.27;8.40;;;;;;;-140.72;100.00;52695.25;4979726;28;20022;-69
2022/09/24 03:04:15;;;;;;;11.77;8.15;;;;;;;-140.72;100.00;52715.53;4987327;28;20104;-69
2022/09/24 03:06:41;;;;;;;16.17;8.63;;;;;;;-140.72;100.00;52695.25;4988122;28;20030;-69
2022/09/24 03:09:06;;;;;;;10.85;8.73;;;;;;;-140.72;100.00;52748.00;4988319;28;20018;-69
2022/09/24 03:11:32;;;;;;;11.90;8.55;;;;;;;-140.72;100.00;52699.31;4983515;28;20089;-69
2022/09/24 03:13:58;;;;;;;13.50;9.18;;;;;;;-140.72;100.00;52713.50;4982956;28;20027;-69
2022/09/24 03:16:24;;;;;;;13.68;9.30;;;;;;;-140.72;100.00;52713.50;4973922;28;20046;-70
2022/09/24 03:18:49;;;;;;;17.13;8.13;;;;;;;-140.72;100.00;52717.56;4978522;28;20078;-70
2022/09/24 03:21:17;;;;;;;12.80;8.68;;;;;;;-140.72;100.00;52721.63;4977177;28;20109;-70
2022/09/24 03:23:43;;;;;;;12.45;8.50;;;;;;;-140.72;100.00;52754.09;4978173;28;20030;-69
2022/09/24 03:26:09;;;;;;;12.40;9.20;;;;;;;-140.72;100.00;52727.72;4978382;28;20046;-70
2022/09/24 03:28:35;;;;;;;12.48;8.65;;;;;;;-140.72;100.00;52695.25;4984148;28;20034;-70
2022/09/24 03:31:00;;;;;;;12.57;9.27;;;;;;;-140.72;100.00;52731.75;4985297;28;20081;-70
2022/09/24 03:33:40;;;;;;;13.95;8.88;;;;;;;-140.72;100.00;52737.84;4984290;28;20057;-69
2022/09/24 03:36:10;;;;;;;;;;;;;;;-140.72;100.00;52717.56;4988056;28;20046;-69
2022/09/24 03:38:38;;;;;;;17.13;10.55;;;;;;;-140.72;100.00;52735.81;4987875;28;19914;-70
2022/09/24 03:41:07;;;;;;;11.40;8.57;;;;;;;-140.72;100.00;52737.84;4980996;28;20026;-70
2022/09/24 03:43:33;;;;;;;13.52;9.30;;;;;;;-140.72;100.00;52719.59;4980455;28;20421;-70
2022/09/24 03:45:59;;;;;;;14.45;9.07;;;;;;;-140.72;100.00;52739.88;4983075;28;20030;-70
2022/09/24 03:48:26;;;;;;;13.38;9.05;;;;;;;-140.72;100.00;52760.19;4986438;28;20026;-71
2022/09/24 03:50:52;;;;;;;13.13;9.70;;;;;;;-140.72;100.00;52760.19;4984504;28;20393;-69
2022/09/24 03:53:18;;;;;;;13.30;9.93;;;;;;;-140.72;100.00;52737.84;4980154;28;20491;-71
2022/09/24 03:55:45;;;;;;;14.55;9.40;;;;;;;-140.72;100.00;52711.47;4981886;28;20034;-71
2022/09/24 03:58:12;;;;;;;11.93;9.32;;;;;;;-140.72;100.00;52731.75;4980070;28;20033;-69
2022/09/24 04:00:38;;;;;;;13.20;9.40;;;;;;;-140.72;100.00;52739.88;4987306;28;20058;-70
2022/09/24 04:03:04;;;;;;;11.63;9.32;;;;;;;-140.72;100.00;52727.72;4980025;28;20058;-71
2022/09/24 04:05:29;;;;;;;13.82;10.52;;;;;;;-140.72;100.00;52727.72;4977289;28;20023;-70
2022/09/24 04:07:56;;;;;;;14.80;10.18;;;;;;;-140.72;100.00;52699.31;4986434;28;20026;-70
2022/09/24 04:10:23;;;;;;;13.68;9.60;;;;;;;-140.72;100.00;52772.34;4980219;28;20058;-69
2022/09/24 04:12:49;;;;;;;15.80;10.07;;;;;;;-140.72;100.00;52727.72;4977555;28;20030;-68
2022/09/24 04:15:17;;;;;;;12.68;9.75;;;;;;;-140.72;100.00;52735.81;4982616;28;20033;-68
2022/09/24 04:17:51;;;;;;;14.43;10.60;;;;;;;-140.72;100.00;52711.47;4980766;28;20130;-70
2022/09/24 04:20:21;;;;;;;13.10;9.43;;;;;;;-140.72;100.00;52707.41;4986253;28;20023;-68
2022/09/24 04:22:47;;;;;;;13.70;10.93;;;;;;;-140.72;100.00;52693.22;4988738;28;20092;-68
2022/09/24 04:25:12;;;;;;;18.63;10.95;;;;;;;-140.72;100.00;52745.97;4988706;28;20480;-68
2022/09/24 04:27:38;;;;;;;17.30;10.02;;;;;;;-140.72;100.00;52737.84;4979771;28;20102;-68
2022/09/24 04:30:04;;;;;;;14.73;9.73;;;;;;;-140.72;100.00;52741.91;4987249;28;20026;-69
2022/09/24 04:32:29;;;;;;;15.30;10.43;;;;;;;-140.72;100.00;52748.00;4984232;28;20360;-70
2022/09/24 04:34:54;;;;;;;15.00;10.70;;;;;;;-140.72;100.00;52743.94;4987956;28;20068;-68
2022/09/24 04:37:22;;;;;;;19.05;12.27;;;;;;;-140.72;100.00;52695.25;4982583;28;20035;-70
2022/09/24 04:39:48;;;;;;;15.25;11.15;;;;;;;-140.72;100.00;52711.47;4978863;28;20030;-69
2022/09/24 04:42:17;;;;;;;16.70;12.02;;;;;;;-140.72;100.00;52739.88;4984159;28;20456;-70
2022/09/24 04:44:46;;;;;;;15.05;11.00;;;;;;;-140.72;100.00;52729.75;4985898;28;20032;-70
2022/09/24 04:47:15;;;;;;;14.63;11.43;;;;;;;-140.72;100.00;52725.69;4984088;28;20033;-69
2022/09/24 04:49:43;;;;;;;16.23;10.07;;;;;;;-140.72;100.00;52739.88;4987472;28;20117;-68
2022/09/24 04:52:08;;;;;;;15.73;11.55;;;;;;;-140.72;100.00;52662.78;4985293;28;20022;-68
2022/09/24 04:54:36;;;;;;;14.75;10.65;;;;;;;-140.72;100.00;52743.94;4973458;28;20140;-69
2022/09/24 04:57:02;;;;;;;14.77;11.38;;;;;;;-140.72;100.00;52723.66;4988188;28;20033;-68
2022/09/24 04:59:28;;;;;;;15.93;12.18;;;;;;;-140.72;100.00;52723.66;4979281;28;20035;-69
2022/09/24 05:01:53;;;;;;;14.90;11.18;;;;;;;-140.72;100.00;52693.22;4980688;28;20050;-70
2022/09/24 05:04:19;;;;;;;15.43;12.90;;;;;;;-140.72;100.00;52756.13;4984738;28;20025;-68
2022/09/24 05:06:44;;;;;;;16.35;11.15;;;;;;;-140.72;100.00;52741.91;4985878;28;20033;-67
2022/09/24 05:09:09;;;;;;;17.33;12.45;;;;;;;-140.72;100.00;52762.22;4977832;28;20117;-67
2022/09/24 05:11:35;;;;;;;16.77;11.48;;;;;;;-140.72;100.00;52681.03;4982857;28;20033;-68
2022/09/24 05:14:00;;;;;;;15.45;10.63;;;;;;;-140.72;100.00;52723.66;4988186;28;20049;-68
2022/09/24 05:16:26;;;;;;;15.48;10.60;;;;;;;-140.72;100.00;52733.78;4982661;28;20169;-68
2022/09/24 05:18:54;;;;;;;14.88;11.60;;;;;;;-140.72;100.00;52737.84;4984717;28;20022;-68
2022/09/24 05:21:20;;;;;;;15.50;11.98;;;;;;;-140.72;100.00;52727.72;4985297;28;20038;-67
2022/09/24 05:23:45;;;;;;;20.75;13.35;;;;;;;-140.72;100.00;52689.16;4981537;28;20035;-68
2022/09/24 05:28:55;;;;;;;17.00;11.95;;;;;;;-140.72;100.00;52683.06;4974584;28;20046;-68
2022/09/24 05:31:20;;;;;;;20.38;11.98;;;;;;;-140.72;100.00;52699.31;4977124;28;20027;-67
2022/09/24 05:33:45;;;;;;;17.00;11.55;;;;;;;-140.72;100.00;52752.06;4983607;28;20026;-69
2022/09/24 05:36:11;;;;;;;15.30;11.48;;;;;;;-140.72;100.00;52729.75;4980697;28;20121;-69
2022/09/24 05:38:36;;;;;;;15.25;10.38;;;;;;;-140.72;100.00;52754.09;4987243;28;20030;-67
2022/09/24 05:41:02;;;;;;;16.08;10.20;;;;;;;-140.72;100.00;52748.00;4985470;28;20476;-70
2022/09/24 05:43:28;;;;;;;15.30;12.05;;;;;;;-140.72;100.00;52737.84;4977045;28;20030;-69
2022/09/24 05:45:53;;;;;;;13.98;9.85;;;;;;;-140.72;100.00;52707.41;4990287;28;20030;-70
2022/09/24 05:48:20;;;;;;;16.88;10.68;;;;;;;-140.72;100.00;52733.78;4984044;28;20098;-69
2022/09/24 05:50:46;;;;;;;15.95;10.90;;;;;;;-140.72;100.00;52709.44;4989893;28;20034;-69
2022/09/24 05:53:11;;;;;;;15.45;10.82;;;;;;;-140.72;100.00;52754.09;4979945;28;20030;-69
2022/09/24 05:55:37;;;;;;;14.80;11.05;;;;;;;-140.72;100.00;52713.50;4983440;28;20035;-69
2022/09/24 05:58:09;;;;;;;13.75;9.23;;;;;;;-140.72;100.00;52723.66;4982724;28;20035;-69
2022/09/24 06:00:35;;;;;;;20.52;11.07;;;;;;;-140.72;100.00;52762.22;4986096;28;20146;-71
2022/09/24 06:03:09;;;;;;;11.43;8.75;;;;;;;-140.72;100.00;52750.03;4985603;28;20027;-69
2022/09/24 06:05:35;;;;;;;14.27;10.68;;;;;;;-140.72;100.00;52711.47;4987970;28;20265;-69
2022/09/24 06:08:04;;;;;;;14.65;10.57;;;;;;;-140.72;100.00;52735.81;4978901;28;20455;-69
2022/09/24 06:10:30;;;;;;;14.82;9.93;;;;;;;-140.72;100.00;52754.09;4986340;28;20459;-69
2022/09/24 06:12:55;;;;;;;12.60;9.27;;;;;;;-140.72;100.00;52743.94;4983489;28;20026;-70
2022/09/24 06:15:21;;;;;;;18.23;10.38;;;;;;;-140.72;100.00;52715.53;4981443;28;20383;-70
2022/09/24 06:17:46;;;;;;;16.60;9.38;;;;;;;-140.72;100.00;52725.69;4984781;28;20030;-69
2022/09/24 06:20:12;;;;;;;14.20;10.98;;;;;;;-140.72;100.00;52733.78;4982725;28;20030;-70
2022/09/24 06:22:39;;;;;;;16.83;10.23;;;;;;;-140.72;100.00;52737.84;4984199;28;20356;-69
2022/09/24 06:25:06;;;;;;;17.35;10.10;;;;;;;-140.72;100.00;52756.13;4982766;28;20049;-68
2022/09/24 06:27:31;;;;;;;15.00;10.35;;;;;;;-140.72;100.00;52731.75;4978442;28;20022;-69
2022/09/24 06:29:56;;;;;;;16.75;10.50;;;;;;;-140.72;100.00;52760.19;4981980;28;20021;-70
2022/09/24 06:32:23;;;;;;;13.70;9.75;;;;;;;-140.72;100.00;52699.31;4981513;28;20084;-69
2022/09/24 06:34:48;;;;;;;12.80;9.13;;;;;;;-140.72;100.00;52691.19;4984091;28;20066;-69
2022/09/24 06:37:14;;;;;;;13.93;8.30;;;;;;;-140.72;100.00;52729.75;4989202;28;20030;-70
2022/09/24 06:39:39;;;;;;;11.95;7.78;;;;;;;-140.72;100.00;52733.78;4977163;28;20026;-69
2022/09/24 06:42:05;;;;;;;14.13;7.90;;;;;;;-140.72;100.00;52695.25;4981346;28;20028;-69
2022/09/24 06:44:33;;;;;;;10.23;7.55;;;;;;;-140.72;100.00;52737.84;4982241;28;20090;-70
2022/09/24 06:47:00;;;;;;;11.27;6.43;;;;;;;-140.72;100.00;52721.63;4983296;28;20030;-71
2022/09/24 06:49:25;;;;;;;8.00;5.60;;;;;;;-140.72;100.00;52693.22;4982735;28;20417;-72
2022/09/24 06:51:53;;;;;;;7.22;5.65;;;;;;;-140.72;100.00;52699.31;4981808;28;20023;-70
2022/09/24 06:54:19;;;;;;;10.05;5.55;;;;;;;-140.72;100.00;52729.75;4974166;28;20030;-70
2022/09/24 06:56:45;;;;;;;6.45;4.13;;;;;;;-140.72;100.00;52670.88;4982452;28;20026;-69
2022/09/24 06:59:11;;;;;;;7.72;3.63;;;;;;;-140.72;100.00;52699.31;4983855;28;20064;-70
2022/09/24 07:01:36;;;;;;;5.28;3.03;;;;;;;-140.72;100.00;52731.75;4985773;28;20034;-69
2022/09/24 07:04:03;;;;;;;6.38;2.72;;;;;;;-140.72;100.00;52685.09;4982905;28;20030;-71
2022/09/24 07:07:28;;;;;;;4.97;1.80;;;;;;;-140.72;100.00;52737.84;4981172;28;20090;-69
2022/09/24 07:09:14;;;;;;;1.60;1.15;;;;;;;-140.72;100.00;52723.66;4981630;28;20035;-70
2022/09/24 07:11:39;;;;;;;3.28;0.93;;;;;;;-140.72;100.00;52764.25;4983293;28;20089;-71
2022/09/24 07:14:05;;;;;;;2.60;1.00;;;;;;;-140.72;100.00;52713.50;4986324;28;20130;-70
2022/09/24 07:16:30;;;;;;;4.20;1.02;;;;;;;-140.72;100.00;52729.75;4981538;28;20027;-70
2022/09/24 07:18:57;;;;;;;2.08;0.75;;;;;;;-140.72;100.00;52707.41;4981386;28;20030;-70
2022/09/24 07:21:22;;;;;;;4.63;1.20;;;;;;;-140.72;100.00;52741.91;4981271;28;20037;-70
2022/09/24 07:23:47;;;;;;;5.13;1.17;;;;;;;-140.72;100.00;52711.47;4978219;28;20026;-71
2022/09/24 07:26:13;;;;;;;4.78;1.05;;;;;;;-140.72;100.00;52725.69;4982128;28;20523;-72
2022/09/24 07:28:38;;;;;;;5.03;0.73;;;;;;;-140.72;100.00;52735.81;4976445;28;20085;-70
2022/09/24 07:31:04;;;;;;;3.28;1.05;;;;;;;-140.72;100.00;52687.13;4978028;28;20030;-71
2022/09/24 07:33:32;;;;;;;4.80;1.30;;;;;;;-140.72;100.00;52782.50;4986144;28;20056;-71
2022/09/24 07:35:57;;;;;;;1.35;0.85;;;;;;;-140.72;100.00;52735.81;4977291;28;20039;-71
2022/09/24 07:38:23;;;;;;;2.78;0.88;;;;;;;-140.72;100.00;52739.88;4988043;28;20399;-71
2022/09/24 07:40:49;;;;;;;2.33;0.80;;;;;;;-140.72;100.00;52707.41;4984356;28;20459;-71
2022/09/24 07:43:14;;;;;;;1.98;0.85;;;;;;;-140.72;100.00;52750.03;4982512;28;20027;-70
2022/09/24 07:45:41;;;;;;;4.07;0.93;;;;;;;-140.72;100.00;52733.78;4984431;28;20033;-70
2022/09/24 07:48:08;;;;;;;6.03;1.15;;;;;;;-140.72;100.00;52687.13;4980514;28;20363;-72
2022/09/24 07:50:38;;;;;;;5.60;1.02;;;;;;;-140.72;100.00;52719.59;4982372;28;20037;-72
2022/09/24 07:53:05;;;;;;;6.20;1.27;;;;;;;-140.72;100.00;52707.41;4980928;28;20487;-70
2022/09/24 07:55:30;;;;;;;1.00;0.73;;;;;;;-140.72;100.00;52719.59;4981816;28;20475;-72
2022/09/24 07:57:56;;;;;;;4.85;0.80;;;;;;;-140.72;100.00;52741.91;4987618;28;20026;-70
2022/09/24 08:00:23;;;;;;;5.40;0.93;;;;;;;-140.72;100.00;52739.88;4989987;28;20037;-72
2022/09/24 08:02:50;;;;;;;2.85;0.75;;;;;;;-140.72;100.00;52715.53;4978076;28;20061;-71
2022/09/24 08:05:17;;;;;;;1.52;0.93;;;;;;;-140.72;100.00;52697.28;4985181;28;20058;-72
2022/09/24 08:07:53;;;;;;;4.07;0.73;;;;;;;-140.72;100.00;52711.47;4988236;28;20033;-68
2022/09/24 08:10:18;;;;;;;3.38;1.20;;;;;;;-140.72;100.00;52731.75;4988722;28;20113;-68
2022/09/24 08:12:44;;;;;;;4.40;1.15;;;;;;;-140.72;100.00;52731.75;4987552;28;20032;-68
2022/09/24 08:15:09;;;;;;;4.82;1.00;;;;;;;-140.72;100.00;52735.81;4985145;28;20035;-70
2022/09/24 08:17:35;;;;;;;1.42;0.88;;;;;;;-140.72;100.00;52735.81;4983938;28;20039;-70
2022/09/24 08:20:00;;;;;;;5.82;1.75;;;;;;;-140.72;100.00;52705.38;4987848;28;20038;-70
2022/09/24 08:22:26;;;;;;;4.57;0.95;;;;;;;-140.72;100.00;52737.84;4992616;28;20026;-69
2022/09/24 08:24:52;;;;;;;3.60;1.08;;;;;;;-140.72;100.00;52743.94;4984703;28;20034;-70
2022/09/24 08:27:22;;;;;;;2.03;0.88;;;;;;;-140.72;100.00;52713.50;4989414;28;20036;-71
2022/09/24 08:29:48;;;;;;;4.38;1.48;;;;;;;-140.72;100.00;52681.03;4992359;28;20246;-70
2022/09/24 08:32:13;;;;;;;3.70;1.00;;;;;;;-140.72;100.00;52711.47;4989576;28;20038;-70
2022/09/24 08:34:39;;;;;;;7.20;2.00;;;;;;;-140.72;100.00;52711.47;4992639;28;20418;-69
2022/09/24 08:37:08;;;;;;;3.25;0.68;;;;;;;-140.72;100.00;52687.13;4993503;28;20062;-69
2022/09/24 08:39:34;;;;;;;1.17;0.90;;;;;;;-140.72;100.00;52681.03;4992251;28;20113;-69
2022/09/24 08:42:05;;;;;;;2.33;0.60;;;;;;;-140.72;100.00;52711.47;4993250;28;20122;-71
2022/09/24 08:47:35;;;;;;;2.55;0.80;;;;;;;-140.72;100.00;52699.31;4991175;28;20046;-71
2022/09/24 08:50:15;;;;;;;3.13;0.95;;;;;;;-140.72;100.00;52758.16;4980018;28;20494;-70
2022/09/24 08:52:49;;;;;;;3.30;0.55;;;;;;;-140.72;100.00;52719.59;4983237;28;20034;-70
2022/09/24 08:55:20;;;;;;;4.95;0.73;;;;;;;-140.72;100.00;52723.66;4995343;28;20030;-70
2022/09/24 08:57:57;;;;;;;5.47;1.08;;;;;;;-140.72;100.00;52719.59;4986512;28;20041;-71
2022/09/24 09:00:23;;;;;;;4.18;0.88;;;;;;;-140.72;100.00;52723.66;4977765;28;20093;-70
2022/09/24 09:03:05;;;;;;;1.63;0.70;;;;;;;-140.72;100.00;52662.78;4991812;28;20367;-70
2022/09/24 09:05:43;;;;;;;1.95;0.85;;;;;;;-140.72;100.00;52703.34;4980577;28;20101;-70
2022/09/24 09:08:17;;;;;;;1.90;0.63;;;;;;;-140.72;100.00;52711.47;4983023;28;20034;-71
2022/09/24 09:10:43;;;;;;;5.13;0.55;;;;;;;-140.72;100.00;52717.56;4991851;28;20031;-70
2022/09/24 09:13:25;;;;;;;3.80;0.70;;;;;;;-140.72;100.00;52721.63;4988604;28;20073;-72
2022/09/24 09:16:05;;;;;;;3.53;0.88;;;;;;;-140.72;100.00;52693.22;4991765;28;20042;-69
2022/09/24 09:18:36;;;;;;;1.63;0.65;;;;;;;-140.72;100.00;52687.13;4991708;28;20030;-71
2022/09/24 09:21:33;;;;;;;2.28;0.70;;;;;;;-140.72;100.00;52719.59;4978577;28;20037;-71
2022/09/24 09:24:01;;;;;;;0.73;0.28;;;;;;;-140.72;100.00;52689.16;4987215;28;20037;-70
2022/09/24 09:26:27;;;;;;;2.38;0.93;;;;;;;-140.72;100.00;52709.44;4983228;28;20184;-72
2022/09/24 09:28:58;;;;;;;1.85;0.80;;;;;;;-140.72;100.00;52709.44;4980701;28;20031;-72
2022/09/24 09:31:32;;;;;;;3.35;0.90;;;;;;;-140.72;100.00;52699.31;4991383;28;20456;-69
2022/09/24 09:34:10;;;;;;;2.60;0.93;;;;;;;-140.72;100.00;52687.13;4991844;28;20082;-69
2022/09/24 09:36:38;;;;;;;1.65;0.50;;;;;;;-140.72;100.00;52731.75;4991803;28;20022;-71
2022/09/24 09:39:27;;;;;;;1.20;0.85;;;;;;;-140.72;100.00;52723.66;4991617;28;20034;-71
2022/09/24 09:41:56;;;;;;;3.03;0.52;;;;;;;-140.72;100.00;52703.34;4980235;28;20033;-71
2022/09/24 09:44:28;;;;;;;1.60;0.77;;;;;;;-140.72;100.00;52719.59;4990452;28;20403;-70
2022/09/24 09:47:03;;;;;;;4.13;1.20;;;;;;;-140.72;100.00;52674.94;4981150;28;20467;-71
2022/09/24 09:49:37;;;;;;;4.43;0.88;;;;;;;-140.72;100.00;52737.84;4983601;28;20038;-71
2022/09/24 09:52:13;;;;;;;1.08;0.52;;;;;;;-140.72;100.00;52715.53;4984152;28;20109;-74
2022/09/24 09:54:40;;;;;;;1.17;0.40;;;;;;;-140.72;100.00;52685.09;4991403;28;20038;-73
2022/09/24 09:57:14;;;;;;;4.13;1.42;;;;;;;-140.72;100.00;52695.25;4973336;28;22468;-71
2022/09/24 09:59:39;;;;;;;1.75;0.80;;;;;;;-140.72;100.00;52727.72;4977316;28;20030;-72
2022/09/24 10:02:10;;;;;;;2.55;0.77;;;;;;;-140.72;100.00;52711.47;4975058;28;20025;-71
2022/09/24 10:04:41;;;;;;;1.92;0.80;;;;;;;-140.72;100.00;52715.53;4982301;28;20517;-74
2022/09/24 10:07:12;;;;;;;5.65;0.60;;;;;;;-140.72;100.00;52660.75;4980435;28;20018;-72
2022/09/24 10:09:42;;;;;;;5.32;0.88;;;;;;;-140.72;100.00;52711.47;4972905;28;20125;-74
2022/09/24 10:12:22;;;;;;;3.35;0.82;;;;;;;-140.72;100.00;52679.00;4981103;28;20054;-71
2022/09/24 10:15:00;;;;;;;3.33;0.95;;;;;;;-140.72;100.00;52699.31;4978086;28;20085;-72
2022/09/24 10:17:39;;;;;;;3.63;0.93;;;;;;;-140.72;100.00;52670.88;4981475;28;20034;-73
2022/09/24 10:20:21;;;;;;;2.10;0.80;;;;;;;-140.72;100.00;52640.44;4977849;28;20059;-72
2022/09/24 10:22:50;;;;;;;2.83;1.00;;;;;;;-140.72;100.00;52670.88;4976022;28;20126;-72
2022/09/24 10:25:25;;;;;;;2.33;0.68;;;;;;;-140.72;100.00;52676.97;4971336;28;20416;-73
2022/09/24 10:27:53;;;;;;;3.15;0.70;;;;;;;-140.72;100.00;52693.22;4979209;28;20025;-73
2022/09/24 10:30:32;;;;;;;4.30;0.73;;;;;;;-140.72;100.00;52693.22;4980692;28;20371;-71
2022/09/24 10:33:03;;;;;;;3.75;0.50;;;;;;;-140.72;100.00;52662.78;4979370;28;20109;-69
2022/09/24 10:35:37;;;;;;;5.30;0.90;;;;;;;-140.72;100.00;52695.25;4976349;28;20051;-70
2022/09/24 10:38:18;;;;;;;3.28;1.10;;;;;;;-140.72;100.00;52715.53;4979083;28;20098;-71
2022/09/24 10:40:44;;;;;;;3.15;0.73;;;;;;;-140.72;100.00;52703.34;4976811;28;20030;-71
2022/09/24 10:43:24;;;;;;;1.67;0.70;;;;;;;-140.72;100.00;52745.97;4981581;28;20255;-72
2022/09/24 10:46:08;;;;;;;1.75;0.65;;;;;;;-140.72;100.00;52681.03;4974597;28;20018;-70
2022/09/24 10:48:47;;;;;;;2.58;0.85;;;;;;;-140.72;100.00;52707.41;4982955;28;20014;-71
2022/09/24 10:51:22;;;;;;;3.42;0.80;;;;;;;-140.72;100.00;52697.28;4980253;28;20026;-71
2022/09/24 10:54:36;;;;;;;3.85;0.70;;;;;;;-140.72;100.00;52729.75;4988903;28;20157;-72
2022/09/24 10:57:24;;;;;;;3.40;1.00;;;;;;;-140.72;100.00;52691.19;4920057;28;20608;-71
2022/09/24 10:59:58;;;;;;;4.35;0.98;;;;;;;-140.72;100.00;52731.75;4983080;28;20023;-72
2022/09/24 11:03:02;;;;;;;2.80;1.13;;;;;;;-140.72;100.00;52697.28;4989997;28;20084;-71
2022/09/24 11:05:38;;;;;;;0.68;0.30;;;;;;;-140.72;100.00;52713.50;4992835;28;20186;-71
2022/09/24 11:08:13;;;;;;;1.40;0.52;;;;;;;-140.72;100.00;52717.56;4981842;28;20031;-72
2022/09/24 11:11:10;;;;;;;5.32;0.70;;;;;;;-140.72;100.00;52656.69;4983832;28;20046;-72
2022/09/24 11:13:40;;;;;;;3.35;0.88;;;;;;;-140.72;100.00;52693.22;4982464;28;20042;-72
2022/09/24 11:16:37;;;;;;;1.38;0.80;;;;;;;-140.72;100.00;52672.91;4980975;28;20417;-70
2022/09/24 11:19:27;;;;;;;1.92;0.73;;;;;;;-140.72;100.00;52691.19;4979889;28;20041;-71
2022/09/24 11:22:11;;;;;;;2.33;0.73;;;;;;;-140.72;100.00;52691.19;4992481;28;20113;-73
2022/09/24 11:25:19;;;;;;;2.00;0.55;;;;;;;-140.72;100.00;52662.78;4978291;28;20031;-73
2022/09/24 11:27:55;;;;;;;1.73;0.60;;;;;;;-140.72;100.00;52662.78;4992702;28;20026;-70